sensor_id;sensor_type;location;lat;lon;timestamp;temperature;humidity
71082;SHT31;58740;50.672;18.690;2022-12-07T00:01:43;2.48;85.40
71082;SHT31;58740;50.672;18.690;2022-12-07T00:04:15;2.49;85.36
71082;SHT31;58740;50.672;18.690;2022-12-07T00:06:46;2.48;85.39
71082;SHT31;58740;50.672;18.690;2022-12-07T00:09:19;2.49;85.39
71082;SHT31;58740;50.672;18.690;2022-12-07T00:11:50;2.51;85.37
71082;SHT31;58740;50.672;18.690;2022-12-07T00:14:19;2.52;85.34
71082;SHT31;58740;50.672;18.690;2022-12-07T00:16:51;2.53;85.35
71082;SHT31;58740;50.672;18.690;2022-12-07T00:19:19;2.53;85.43
71082;SHT31;58740;50.672;18.690;2022-12-07T00:21:47;2.54;85.42
71082;SHT31;58740;50.672;18.690;2022-12-07T00:24:15;2.53;85.39
71082;SHT31;58740;50.672;18.690;2022-12-07T00:26:43;2.51;85.40
71082;SHT31;58740;50.672;18.690;2022-12-07T00:29:16;2.50;85.49
71082;SHT31;58740;50.672;18.690;2022-12-07T00:31:47;2.51;85.50
71082;SHT31;58740;50.672;18.690;2022-12-07T00:34:16;2.54;85.44
71082;SHT31;58740;50.672;18.690;2022-12-07T00:36:46;2.55;85.50
71082;SHT31;58740;50.672;18.690;2022-12-07T00:39:15;2.57;85.39
71082;SHT31;58740;50.672;18.690;2022-12-07T00:41:44;2.57;85.39
71082;SHT31;58740;50.672;18.690;2022-12-07T00:44:11;2.54;85.36
71082;SHT31;58740;50.672;18.690;2022-12-07T00:46:39;2.53;85.44
71082;SHT31;58740;50.672;18.690;2022-12-07T00:49:07;2.50;85.44
71082;SHT31;58740;50.672;18.690;2022-12-07T00:51:35;2.50;85.51
71082;SHT31;58740;50.672;18.690;2022-12-07T00:54:03;2.52;85.54
71082;SHT31;58740;50.672;18.690;2022-12-07T00:56:31;2.54;85.50
71082;SHT31;58740;50.672;18.690;2022-12-07T00:59:02;2.58;85.43
71082;SHT31;58740;50.672;18.690;2022-12-07T01:01:32;2.58;85.41
71082;SHT31;58740;50.672;18.690;2022-12-07T01:04:03;2.58;85.42
71082;SHT31;58740;50.672;18.690;2022-12-07T01:06:31;2.58;85.47
71082;SHT31;58740;50.672;18.690;2022-12-07T01:08:59;2.59;85.42
71082;SHT31;58740;50.672;18.690;2022-12-07T01:11:28;2.58;85.40
71082;SHT31;58740;50.672;18.690;2022-12-07T01:13:57;2.56;85.43
71082;SHT31;58740;50.672;18.690;2022-12-07T01:16:28;2.56;85.42
71082;SHT31;58740;50.672;18.690;2022-12-07T01:18:59;2.57;85.50
71082;SHT31;58740;50.672;18.690;2022-12-07T01:21:30;2.59;85.41
71082;SHT31;58740;50.672;18.690;2022-12-07T01:24:03;2.58;85.42
71082;SHT31;58740;50.672;18.690;2022-12-07T01:26:34;2.57;85.49
71082;SHT31;58740;50.672;18.690;2022-12-07T01:29:01;2.58;85.47
71082;SHT31;58740;50.672;18.690;2022-12-07T01:31:29;2.57;85.47
71082;SHT31;58740;50.672;18.690;2022-12-07T01:33:58;2.55;85.47
71082;SHT31;58740;50.672;18.690;2022-12-07T01:36:31;2.54;85.50
71082;SHT31;58740;50.672;18.690;2022-12-07T01:39:04;2.56;85.49
71082;SHT31;58740;50.672;18.690;2022-12-07T01:41:35;2.56;85.51
71082;SHT31;58740;50.672;18.690;2022-12-07T01:46:50;2.62;85.48
71082;SHT31;58740;50.672;18.690;2022-12-07T01:49:37;2.64;85.39
71082;SHT31;58740;50.672;18.690;2022-12-07T01:52:14;2.64;85.33
71082;SHT31;58740;50.672;18.690;2022-12-07T01:54:54;2.60;85.36
71082;SHT31;58740;50.672;18.690;2022-12-07T01:57:31;2.59;85.46
71082;SHT31;58740;50.672;18.690;2022-12-07T02:00:03;2.59;85.34
71082;SHT31;58740;50.672;18.690;2022-12-07T02:02:36;2.59;85.36
71082;SHT31;58740;50.672;18.690;2022-12-07T02:05:11;2.61;85.39
71082;SHT31;58740;50.672;18.690;2022-12-07T02:07:40;2.62;85.38
71082;SHT31;58740;50.672;18.690;2022-12-07T02:12:50;2.64;85.28
71082;SHT31;58740;50.672;18.690;2022-12-07T02:21:44;2.59;85.32
71082;SHT31;58740;50.672;18.690;2022-12-07T02:30:18;2.63;85.28
71082;SHT31;58740;50.672;18.690;2022-12-07T02:32:51;2.62;85.30
71082;SHT31;58740;50.672;18.690;2022-12-07T02:41:00;2.62;85.34
71082;SHT31;58740;50.672;18.690;2022-12-07T02:43:36;2.63;85.29
71082;SHT31;58740;50.672;18.690;2022-12-07T02:46:17;2.64;85.25
71082;SHT31;58740;50.672;18.690;2022-12-07T02:48:51;2.62;85.31
71082;SHT31;58740;50.672;18.690;2022-12-07T02:51:22;2.63;85.35
71082;SHT31;58740;50.672;18.690;2022-12-07T02:53:50;2.65;85.33
71082;SHT31;58740;50.672;18.690;2022-12-07T03:13:35;2.64;85.30
71082;SHT31;58740;50.672;18.690;2022-12-07T03:16:18;2.65;85.28
71082;SHT31;58740;50.672;18.690;2022-12-07T03:18:54;2.64;85.21
71082;SHT31;58740;50.672;18.690;2022-12-07T03:21:31;2.64;85.22
71082;SHT31;58740;50.672;18.690;2022-12-07T03:24:09;2.63;85.20
71082;SHT31;58740;50.672;18.690;2022-12-07T03:26:52;2.62;85.28
71082;SHT31;58740;50.672;18.690;2022-12-07T03:29:49;2.60;85.28
71082;SHT31;58740;50.672;18.690;2022-12-07T03:32:31;2.61;85.34
71082;SHT31;58740;50.672;18.690;2022-12-07T03:43:39;2.51;85.46
71082;SHT31;58740;50.672;18.690;2022-12-07T03:46:17;2.48;85.44
71082;SHT31;58740;50.672;18.690;2022-12-07T03:55:02;2.43;85.60
71082;SHT31;58740;50.672;18.690;2022-12-07T03:57:35;2.45;85.61
71082;SHT31;58740;50.672;18.690;2022-12-07T04:00:05;2.46;85.57
71082;SHT31;58740;50.672;18.690;2022-12-07T04:02:35;2.44;85.50
71082;SHT31;58740;50.672;18.690;2022-12-07T04:05:04;2.43;85.57
71082;SHT31;58740;50.672;18.690;2022-12-07T04:07:33;2.42;85.61
71082;SHT31;58740;50.672;18.690;2022-12-07T04:10:01;2.42;85.61
71082;SHT31;58740;50.672;18.690;2022-12-07T04:12:31;2.42;85.60
71082;SHT31;58740;50.672;18.690;2022-12-07T04:14:58;2.43;85.59
71082;SHT31;58740;50.672;18.690;2022-12-07T04:17:26;2.44;85.59
71082;SHT31;58740;50.672;18.690;2022-12-07T04:19:54;2.44;85.61
71082;SHT31;58740;50.672;18.690;2022-12-07T04:22:21;2.43;85.59
71082;SHT31;58740;50.672;18.690;2022-12-07T04:24:49;2.42;85.59
71082;SHT31;58740;50.672;18.690;2022-12-07T04:27:17;2.41;85.62
71082;SHT31;58740;50.672;18.690;2022-12-07T04:29:45;2.39;85.67
71082;SHT31;58740;50.672;18.690;2022-12-07T04:32:12;2.39;85.61
71082;SHT31;58740;50.672;18.690;2022-12-07T04:34:40;2.39;85.61
71082;SHT31;58740;50.672;18.690;2022-12-07T04:37:08;2.39;85.65
71082;SHT31;58740;50.672;18.690;2022-12-07T04:39:35;2.40;85.63
71082;SHT31;58740;50.672;18.690;2022-12-07T04:42:03;2.39;85.67
71082;SHT31;58740;50.672;18.690;2022-12-07T04:44:31;2.39;85.70
71082;SHT31;58740;50.672;18.690;2022-12-07T04:46:59;2.38;85.71
71082;SHT31;58740;50.672;18.690;2022-12-07T04:49:27;2.37;85.72
71082;SHT31;58740;50.672;18.690;2022-12-07T04:51:54;2.36;85.76
71082;SHT31;58740;50.672;18.690;2022-12-07T04:54:22;2.36;85.70
71082;SHT31;58740;50.672;18.690;2022-12-07T04:56:50;2.36;85.72
71082;SHT31;58740;50.672;18.690;2022-12-07T04:59:18;2.36;85.78
71082;SHT31;58740;50.672;18.690;2022-12-07T05:01:46;2.36;85.75
71082;SHT31;58740;50.672;18.690;2022-12-07T05:04:13;2.36;85.82
71082;SHT31;58740;50.672;18.690;2022-12-07T05:06:43;2.35;85.78
71082;SHT31;58740;50.672;18.690;2022-12-07T05:09:11;2.36;85.77
71082;SHT31;58740;50.672;18.690;2022-12-07T05:11:39;2.34;85.76
71082;SHT31;58740;50.672;18.690;2022-12-07T05:16:46;2.30;85.85
71082;SHT31;58740;50.672;18.690;2022-12-07T05:19:17;2.30;85.85
71082;SHT31;58740;50.672;18.690;2022-12-07T05:21:46;2.31;85.92
71082;SHT31;58740;50.672;18.690;2022-12-07T05:24:14;2.33;85.83
71082;SHT31;58740;50.672;18.690;2022-12-07T05:26:44;2.33;85.82
71082;SHT31;58740;50.672;18.690;2022-12-07T05:29:15;2.33;85.86
71082;SHT31;58740;50.672;18.690;2022-12-07T05:31:44;2.30;85.91
71082;SHT31;58740;50.672;18.690;2022-12-07T05:34:13;2.29;85.92
71082;SHT31;58740;50.672;18.690;2022-12-07T05:36:40;2.29;85.90
71082;SHT31;58740;50.672;18.690;2022-12-07T05:39:08;2.28;85.96
71082;SHT31;58740;50.672;18.690;2022-12-07T05:41:36;2.31;85.94
71082;SHT31;58740;50.672;18.690;2022-12-07T05:44:22;2.33;85.89
71082;SHT31;58740;50.672;18.690;2022-12-07T05:46:50;2.33;85.93
71082;SHT31;58740;50.672;18.690;2022-12-07T05:49:18;2.34;85.87
71082;SHT31;58740;50.672;18.690;2022-12-07T05:51:46;2.32;85.88
71082;SHT31;58740;50.672;18.690;2022-12-07T05:54:13;2.28;85.89
71082;SHT31;58740;50.672;18.690;2022-12-07T05:56:41;2.25;85.97
71082;SHT31;58740;50.672;18.690;2022-12-07T05:59:09;2.23;85.97
71082;SHT31;58740;50.672;18.690;2022-12-07T06:01:58;2.23;85.99
71082;SHT31;58740;50.672;18.690;2022-12-07T06:04:31;2.24;86.01
71082;SHT31;58740;50.672;18.690;2022-12-07T06:07:03;2.26;86.01
71082;SHT31;58740;50.672;18.690;2022-12-07T06:09:32;2.29;85.94
71082;SHT31;58740;50.672;18.690;2022-12-07T06:12:02;2.31;85.87
71082;SHT31;58740;50.672;18.690;2022-12-07T06:14:51;2.31;85.86
71082;SHT31;58740;50.672;18.690;2022-12-07T06:17:19;2.30;85.85
71082;SHT31;58740;50.672;18.690;2022-12-07T06:19:46;2.30;85.85
71082;SHT31;58740;50.672;18.690;2022-12-07T06:22:14;2.30;85.80
71082;SHT31;58740;50.672;18.690;2022-12-07T06:24:43;2.30;85.79
71082;SHT31;58740;50.672;18.690;2022-12-07T06:27:11;2.29;85.79
71082;SHT31;58740;50.672;18.690;2022-12-07T06:29:39;2.28;85.72
71082;SHT31;58740;50.672;18.690;2022-12-07T06:32:07;2.27;85.86
71082;SHT31;58740;50.672;18.690;2022-12-07T06:34:36;2.26;85.84
71082;SHT31;58740;50.672;18.690;2022-12-07T06:37:04;2.25;85.79
71082;SHT31;58740;50.672;18.690;2022-12-07T06:39:31;2.21;85.83
71082;SHT31;58740;50.672;18.690;2022-12-07T06:41:59;2.18;85.90
71082;SHT31;58740;50.672;18.690;2022-12-07T06:44:27;2.15;85.98
71082;SHT31;58740;50.672;18.690;2022-12-07T06:46:55;2.13;85.98
71082;SHT31;58740;50.672;18.690;2022-12-07T06:49:42;2.13;86.01
71082;SHT31;58740;50.672;18.690;2022-12-07T06:52:10;2.16;86.03
71082;SHT31;58740;50.672;18.690;2022-12-07T06:54:38;2.17;86.01
71082;SHT31;58740;50.672;18.690;2022-12-07T06:57:06;2.16;86.07
71082;SHT31;58740;50.672;18.690;2022-12-07T06:59:33;2.15;86.08
71082;SHT31;58740;50.672;18.690;2022-12-07T07:02:01;2.13;86.08
71082;SHT31;58740;50.672;18.690;2022-12-07T07:04:29;2.13;86.10
71082;SHT31;58740;50.672;18.690;2022-12-07T07:06:57;2.13;86.17
71082;SHT31;58740;50.672;18.690;2022-12-07T07:09:26;2.17;86.10
71082;SHT31;58740;50.672;18.690;2022-12-07T07:11:54;2.19;86.00
71082;SHT31;58740;50.672;18.690;2022-12-07T07:14:22;2.18;86.04
71082;SHT31;58740;50.672;18.690;2022-12-07T07:16:50;2.19;86.07
71082;SHT31;58740;50.672;18.690;2022-12-07T07:19:18;2.20;86.03
71082;SHT31;58740;50.672;18.690;2022-12-07T07:21:46;2.19;86.01
71082;SHT31;58740;50.672;18.690;2022-12-07T07:24:14;2.17;86.06
71082;SHT31;58740;50.672;18.690;2022-12-07T07:26:41;2.17;86.10
71082;SHT31;58740;50.672;18.690;2022-12-07T07:29:09;2.17;86.10
71082;SHT31;58740;50.672;18.690;2022-12-07T07:31:37;2.19;86.16
71082;SHT31;58740;50.672;18.690;2022-12-07T07:34:05;2.21;86.10
71082;SHT31;58740;50.672;18.690;2022-12-07T07:36:32;2.23;86.03
71082;SHT31;58740;50.672;18.690;2022-12-07T07:39:00;2.25;85.98
71082;SHT31;58740;50.672;18.690;2022-12-07T07:41:28;2.23;86.03
71082;SHT31;58740;50.672;18.690;2022-12-07T07:43:55;2.21;86.10
71082;SHT31;58740;50.672;18.690;2022-12-07T07:46:23;2.21;86.08
71082;SHT31;58740;50.672;18.690;2022-12-07T07:48:51;2.18;86.07
71082;SHT31;58740;50.672;18.690;2022-12-07T07:51:19;2.18;86.13
71082;SHT31;58740;50.672;18.690;2022-12-07T07:53:47;2.18;86.19
71082;SHT31;58740;50.672;18.690;2022-12-07T07:56:14;2.17;86.21
71082;SHT31;58740;50.672;18.690;2022-12-07T07:58:42;2.21;86.27
71082;SHT31;58740;50.672;18.690;2022-12-07T08:01:10;2.25;86.18
71082;SHT31;58740;50.672;18.690;2022-12-07T08:03:38;2.25;86.12
71082;SHT31;58740;50.672;18.690;2022-12-07T08:06:06;2.23;86.09
71082;SHT31;58740;50.672;18.690;2022-12-07T08:08:34;2.21;86.09
71082;SHT31;58740;50.672;18.690;2022-12-07T08:11:04;2.19;86.17
71082;SHT31;58740;50.672;18.690;2022-12-07T08:13:34;2.18;86.22
71082;SHT31;58740;50.672;18.690;2022-12-07T08:16:07;2.17;86.22
71082;SHT31;58740;50.672;18.690;2022-12-07T08:18:39;2.20;86.20
71082;SHT31;58740;50.672;18.690;2022-12-07T08:21:12;2.21;86.15
71082;SHT31;58740;50.672;18.690;2022-12-07T08:23:42;2.24;86.15
71082;SHT31;58740;50.672;18.690;2022-12-07T08:26:12;2.28;86.22
71082;SHT31;58740;50.672;18.690;2022-12-07T08:28:43;2.29;86.14
71082;SHT31;58740;50.672;18.690;2022-12-07T08:31:13;2.28;86.13
71082;SHT31;58740;50.672;18.690;2022-12-07T08:33:45;2.27;86.18
71082;SHT31;58740;50.672;18.690;2022-12-07T08:36:14;2.26;86.24
71082;SHT31;58740;50.672;18.690;2022-12-07T08:38:44;2.26;86.24
71082;SHT31;58740;50.672;18.690;2022-12-07T08:41:32;2.27;86.27
71082;SHT31;58740;50.672;18.690;2022-12-07T08:44:00;2.31;86.25
71082;SHT31;58740;50.672;18.690;2022-12-07T08:46:39;2.32;86.19
71082;SHT31;58740;50.672;18.690;2022-12-07T08:49:38;2.34;86.20
71082;SHT31;58740;50.672;18.690;2022-12-07T08:52:07;2.36;86.29
71082;SHT31;58740;50.672;18.690;2022-12-07T08:54:36;2.38;86.28
71082;SHT31;58740;50.672;18.690;2022-12-07T08:57:07;2.37;86.21
71082;SHT31;58740;50.672;18.690;2022-12-07T08:59:36;2.37;86.27
71082;SHT31;58740;50.672;18.690;2022-12-07T09:02:05;2.42;86.25
71082;SHT31;58740;50.672;18.690;2022-12-07T09:04:34;2.46;86.13
71082;SHT31;58740;50.672;18.690;2022-12-07T09:07:02;2.48;86.11
71082;SHT31;58740;50.672;18.690;2022-12-07T09:09:31;2.51;86.10
71082;SHT31;58740;50.672;18.690;2022-12-07T09:12:00;2.53;86.09
71082;SHT31;58740;50.672;18.690;2022-12-07T09:14:28;2.53;86.14
71082;SHT31;58740;50.672;18.690;2022-12-07T09:17:04;2.53;86.18
71082;SHT31;58740;50.672;18.690;2022-12-07T09:19:37;2.54;86.16
71082;SHT31;58740;50.672;18.690;2022-12-07T09:22:06;2.55;86.16
71082;SHT31;58740;50.672;18.690;2022-12-07T09:24:34;2.57;86.14
71082;SHT31;58740;50.672;18.690;2022-12-07T09:27:02;2.60;86.17
71082;SHT31;58740;50.672;18.690;2022-12-07T09:29:30;2.62;86.15
71082;SHT31;58740;50.672;18.690;2022-12-07T09:31:58;2.64;86.12
71082;SHT31;58740;50.672;18.690;2022-12-07T09:34:26;2.63;86.04
71082;SHT31;58740;50.672;18.690;2022-12-07T09:36:54;2.62;86.10
71082;SHT31;58740;50.672;18.690;2022-12-07T09:39:21;2.62;86.04
71082;SHT31;58740;50.672;18.690;2022-12-07T09:41:49;2.64;86.10
71082;SHT31;58740;50.672;18.690;2022-12-07T09:44:23;2.65;86.14
71082;SHT31;58740;50.672;18.690;2022-12-07T09:46:54;2.68;86.13
71082;SHT31;58740;50.672;18.690;2022-12-07T09:49:24;2.71;86.12
71082;SHT31;58740;50.672;18.690;2022-12-07T09:52:15;2.72;86.18
71082;SHT31;58740;50.672;18.690;2022-12-07T09:54:52;2.73;86.14
71082;SHT31;58740;50.672;18.690;2022-12-07T09:57:22;2.73;86.21
71082;SHT31;58740;50.672;18.690;2022-12-07T10:00:00;2.75;86.15
71082;SHT31;58740;50.672;18.690;2022-12-07T10:02:40;2.78;86.18
71082;SHT31;58740;50.672;18.690;2022-12-07T10:05:32;2.84;86.15
71082;SHT31;58740;50.672;18.690;2022-12-07T10:08:11;2.86;86.08
71082;SHT31;58740;50.672;18.690;2022-12-07T10:10:41;2.89;86.09
71082;SHT31;58740;50.672;18.690;2022-12-07T10:13:10;2.91;86.00
71082;SHT31;58740;50.672;18.690;2022-12-07T10:23:42;2.97;85.92
71082;SHT31;58740;50.672;18.690;2022-12-07T10:26:34;3.03;85.90
71082;SHT31;58740;50.672;18.690;2022-12-07T10:32:01;3.08;85.78
71082;SHT31;58740;50.672;18.690;2022-12-07T10:34:51;3.08;85.72
71082;SHT31;58740;50.672;18.690;2022-12-07T10:37:46;3.05;85.80
71082;SHT31;58740;50.672;18.690;2022-12-07T10:40:31;3.02;85.83
71082;SHT31;58740;50.672;18.690;2022-12-07T10:48:38;3.02;85.82
71082;SHT31;58740;50.672;18.690;2022-12-07T10:51:45;3.05;85.82
71082;SHT31;58740;50.672;18.690;2022-12-07T11:00:40;3.08;85.83
71082;SHT31;58740;50.672;18.690;2022-12-07T11:17:14;3.26;85.84
71082;SHT31;58740;50.672;18.690;2022-12-07T11:38:11;3.47;85.68
71082;SHT31;58740;50.672;18.690;2022-12-07T11:40:51;3.45;85.46
71082;SHT31;58740;50.672;18.690;2022-12-07T11:47:20;3.43;85.68
71082;SHT31;58740;50.672;18.690;2022-12-07T11:53:14;3.45;85.65
71082;SHT31;58740;50.672;18.690;2022-12-07T11:55:54;3.46;85.74
71082;SHT31;58740;50.672;18.690;2022-12-07T11:59:16;3.47;85.76
71082;SHT31;58740;50.672;18.690;2022-12-07T12:05:15;3.48;85.62
71082;SHT31;58740;50.672;18.690;2022-12-07T12:14:36;3.58;85.56
71082;SHT31;58740;50.672;18.690;2022-12-07T12:18:07;3.60;85.45
71082;SHT31;58740;50.672;18.690;2022-12-07T12:21:12;3.56;85.45
71082;SHT31;58740;50.672;18.690;2022-12-07T12:24:32;3.53;85.52
71082;SHT31;58740;50.672;18.690;2022-12-07T12:26:50;3.49;85.53
71082;SHT31;58740;50.672;18.690;2022-12-07T12:32:48;3.58;85.63
71082;SHT31;58740;50.672;18.690;2022-12-07T12:35:28;3.62;85.70
71082;SHT31;58740;50.672;18.690;2022-12-07T12:41:01;3.66;85.59
71082;SHT31;58740;50.672;18.690;2022-12-07T12:43:43;3.63;85.53
71082;SHT31;58740;50.672;18.690;2022-12-07T12:51:43;3.63;85.50
71082;SHT31;58740;50.672;18.690;2022-12-07T13:02:27;3.65;85.48
71082;SHT31;58740;50.672;18.690;2022-12-07T13:12:55;3.65;85.38
71082;SHT31;58740;50.672;18.690;2022-12-07T13:18:37;3.60;85.13
71082;SHT31;58740;50.672;18.690;2022-12-07T13:34:30;3.35;85.06
71082;SHT31;58740;50.672;18.690;2022-12-07T13:37:15;3.34;85.04
71082;SHT31;58740;50.672;18.690;2022-12-07T13:40:18;3.35;85.09
71082;SHT31;58740;50.672;18.690;2022-12-07T13:42:56;3.32;85.13
71082;SHT31;58740;50.672;18.690;2022-12-07T13:45:31;3.31;85.27
71082;SHT31;58740;50.672;18.690;2022-12-07T13:51:01;3.28;85.27
71082;SHT31;58740;50.672;18.690;2022-12-07T13:53:31;3.27;85.19
71082;SHT31;58740;50.672;18.690;2022-12-07T13:55:59;3.27;85.18
71082;SHT31;58740;50.672;18.690;2022-12-07T13:58:30;3.28;85.23
71082;SHT31;58740;50.672;18.690;2022-12-07T14:01:00;3.29;85.29
71082;SHT31;58740;50.672;18.690;2022-12-07T14:03:32;3.30;85.19
71082;SHT31;58740;50.672;18.690;2022-12-07T14:06:06;3.29;85.19
71082;SHT31;58740;50.672;18.690;2022-12-07T14:09:08;3.27;85.22
71082;SHT31;58740;50.672;18.690;2022-12-07T14:11:47;3.25;85.29
71082;SHT31;58740;50.672;18.690;2022-12-07T14:14:20;3.25;85.22
71082;SHT31;58740;50.672;18.690;2022-12-07T14:19:46;3.26;85.21
71082;SHT31;58740;50.672;18.690;2022-12-07T14:27:54;3.26;84.98
71082;SHT31;58740;50.672;18.690;2022-12-07T14:30:28;3.24;85.04
71082;SHT31;58740;50.672;18.690;2022-12-07T14:33:07;3.21;84.98
71082;SHT31;58740;50.672;18.690;2022-12-07T14:35:36;3.19;84.98
71082;SHT31;58740;50.672;18.690;2022-12-07T14:38:07;3.20;84.99
71082;SHT31;58740;50.672;18.690;2022-12-07T14:40:35;3.20;84.92
71082;SHT31;58740;50.672;18.690;2022-12-07T14:43:04;3.20;84.91
71082;SHT31;58740;50.672;18.690;2022-12-07T14:45:37;3.20;84.72
71082;SHT31;58740;50.672;18.690;2022-12-07T14:48:07;3.17;84.58
71082;SHT31;58740;50.672;18.690;2022-12-07T14:51:00;3.15;84.78
71082;SHT31;58740;50.672;18.690;2022-12-07T14:53:48;3.14;84.62
71082;SHT31;58740;50.672;18.690;2022-12-07T14:56:24;3.14;84.67
71082;SHT31;58740;50.672;18.690;2022-12-07T14:58:53;3.16;84.70
71082;SHT31;58740;50.672;18.690;2022-12-07T15:01:21;3.18;84.71
71082;SHT31;58740;50.672;18.690;2022-12-07T15:03:49;3.20;84.57
71082;SHT31;58740;50.672;18.690;2022-12-07T15:06:17;3.20;84.60
71082;SHT31;58740;50.672;18.690;2022-12-07T15:08:46;3.18;84.57
71082;SHT31;58740;50.672;18.690;2022-12-07T15:11:14;3.16;84.57
71082;SHT31;58740;50.672;18.690;2022-12-07T15:13:45;3.14;84.59
71082;SHT31;58740;50.672;18.690;2022-12-07T15:16:31;3.12;84.56
71082;SHT31;58740;50.672;18.690;2022-12-07T15:19:20;3.12;84.64
71082;SHT31;58740;50.672;18.690;2022-12-07T15:21:57;3.13;84.72
71082;SHT31;58740;50.672;18.690;2022-12-07T15:24:25;3.15;84.55
71082;SHT31;58740;50.672;18.690;2022-12-07T15:26:54;3.16;84.66
71082;SHT31;58740;50.672;18.690;2022-12-07T15:29:22;3.17;84.60
71082;SHT31;58740;50.672;18.690;2022-12-07T15:31:51;3.17;84.68
71082;SHT31;58740;50.672;18.690;2022-12-07T15:34:26;3.15;84.67
71082;SHT31;58740;50.672;18.690;2022-12-07T15:37:04;3.16;84.62
71082;SHT31;58740;50.672;18.690;2022-12-07T15:39:33;3.14;84.48
71082;SHT31;58740;50.672;18.690;2022-12-07T15:42:01;3.13;84.49
71082;SHT31;58740;50.672;18.690;2022-12-07T15:44:29;3.13;84.44
71082;SHT31;58740;50.672;18.690;2022-12-07T15:47:16;3.11;84.30
71082;SHT31;58740;50.672;18.690;2022-12-07T15:49:44;3.09;84.34
71082;SHT31;58740;50.672;18.690;2022-12-07T15:52:12;3.08;84.30
71082;SHT31;58740;50.672;18.690;2022-12-07T15:54:40;3.04;84.30
71082;SHT31;58740;50.672;18.690;2022-12-07T15:57:09;3.02;84.47
71082;SHT31;58740;50.672;18.690;2022-12-07T15:59:36;3.02;84.51
71082;SHT31;58740;50.672;18.690;2022-12-07T16:02:04;3.01;84.52
71082;SHT31;58740;50.672;18.690;2022-12-07T16:04:32;3.02;84.46
71082;SHT31;58740;50.672;18.690;2022-12-07T16:07:01;3.04;84.39
71082;SHT31;58740;50.672;18.690;2022-12-07T16:09:28;3.07;84.43
71082;SHT31;58740;50.672;18.690;2022-12-07T16:11:56;3.08;84.48
71082;SHT31;58740;50.672;18.690;2022-12-07T16:14:24;3.07;84.32
71082;SHT31;58740;50.672;18.690;2022-12-07T16:16:53;3.06;84.29
71082;SHT31;58740;50.672;18.690;2022-12-07T16:19:21;3.04;84.31
71082;SHT31;58740;50.672;18.690;2022-12-07T16:21:49;3.00;84.31
71082;SHT31;58740;50.672;18.690;2022-12-07T16:24:16;2.98;84.31
71082;SHT31;58740;50.672;18.690;2022-12-07T16:26:44;2.97;84.31
71082;SHT31;58740;50.672;18.690;2022-12-07T16:29:18;2.99;84.36
71082;SHT31;58740;50.672;18.690;2022-12-07T16:31:48;2.98;84.23
71082;SHT31;58740;50.672;18.690;2022-12-07T16:34:17;2.98;84.19
71082;SHT31;58740;50.672;18.690;2022-12-07T16:36:51;2.99;84.15
71082;SHT31;58740;50.672;18.690;2022-12-07T16:39:30;2.97;84.07
71082;SHT31;58740;50.672;18.690;2022-12-07T16:41:59;2.93;83.94
71082;SHT31;58740;50.672;18.690;2022-12-07T16:44:27;2.89;83.97
71082;SHT31;58740;50.672;18.690;2022-12-07T16:46:55;2.87;84.06
71082;SHT31;58740;50.672;18.690;2022-12-07T16:49:23;2.87;84.09
71082;SHT31;58740;50.672;18.690;2022-12-07T16:51:51;2.89;84.13
71082;SHT31;58740;50.672;18.690;2022-12-07T16:54:39;2.89;83.99
71082;SHT31;58740;50.672;18.690;2022-12-07T16:57:07;2.90;83.98
71082;SHT31;58740;50.672;18.690;2022-12-07T16:59:35;2.89;83.83
71082;SHT31;58740;50.672;18.690;2022-12-07T17:02:02;2.88;83.93
71082;SHT31;58740;50.672;18.690;2022-12-07T17:04:32;2.87;83.88
71082;SHT31;58740;50.672;18.690;2022-12-07T17:07:02;2.85;83.78
71082;SHT31;58740;50.672;18.690;2022-12-07T17:09:29;2.82;83.91
71082;SHT31;58740;50.672;18.690;2022-12-07T17:11:57;2.81;83.92
71082;SHT31;58740;50.672;18.690;2022-12-07T17:14:25;2.82;83.80
71082;SHT31;58740;50.672;18.690;2022-12-07T17:17:11;2.84;83.89
71082;SHT31;58740;50.672;18.690;2022-12-07T17:19:39;2.86;83.82
71082;SHT31;58740;50.672;18.690;2022-12-07T17:22:07;2.86;83.77
71082;SHT31;58740;50.672;18.690;2022-12-07T17:24:38;2.85;83.78
71082;SHT31;58740;50.672;18.690;2022-12-07T17:27:06;2.85;83.86
71082;SHT31;58740;50.672;18.690;2022-12-07T17:29:35;2.86;83.86
71082;SHT31;58740;50.672;18.690;2022-12-07T17:32:05;2.86;83.82
71082;SHT31;58740;50.672;18.690;2022-12-07T17:34:33;2.88;83.80
71082;SHT31;58740;50.672;18.690;2022-12-07T17:37:00;2.91;83.81
71082;SHT31;58740;50.672;18.690;2022-12-07T17:39:28;2.94;83.83
71082;SHT31;58740;50.672;18.690;2022-12-07T17:41:56;2.96;83.68
71082;SHT31;58740;50.672;18.690;2022-12-07T17:44:43;2.97;83.62
71082;SHT31;58740;50.672;18.690;2022-12-07T17:47:11;2.95;83.49
71082;SHT31;58740;50.672;18.690;2022-12-07T17:49:39;2.93;83.59
71082;SHT31;58740;50.672;18.690;2022-12-07T17:52:08;2.89;83.55
71082;SHT31;58740;50.672;18.690;2022-12-07T17:54:54;2.85;83.69
71082;SHT31;58740;50.672;18.690;2022-12-07T17:57:22;2.84;83.79
71082;SHT31;58740;50.672;18.690;2022-12-07T17:59:50;2.84;83.87
71082;SHT31;58740;50.672;18.690;2022-12-07T18:02:18;2.82;83.94
71082;SHT31;58740;50.672;18.690;2022-12-07T18:04:46;2.82;84.06
71082;SHT31;58740;50.672;18.690;2022-12-07T18:07:14;2.80;84.10
71082;SHT31;58740;50.672;18.690;2022-12-07T18:09:42;2.78;84.22
71082;SHT31;58740;50.672;18.690;2022-12-07T18:12:10;2.74;84.28
71082;SHT31;58740;50.672;18.690;2022-12-07T18:14:38;2.71;84.36
71082;SHT31;58740;50.672;18.690;2022-12-07T18:17:06;2.69;84.42
71082;SHT31;58740;50.672;18.690;2022-12-07T18:19:34;2.69;84.50
71082;SHT31;58740;50.672;18.690;2022-12-07T18:22:03;2.69;84.48
71082;SHT31;58740;50.672;18.690;2022-12-07T18:24:32;2.70;84.52
71082;SHT31;58740;50.672;18.690;2022-12-07T18:27:04;2.71;84.60
71082;SHT31;58740;50.672;18.690;2022-12-07T18:29:33;2.68;84.63
71082;SHT31;58740;50.672;18.690;2022-12-07T18:32:01;2.67;84.75
71082;SHT31;58740;50.672;18.690;2022-12-07T18:34:31;2.65;84.78
71082;SHT31;58740;50.672;18.690;2022-12-07T18:36:59;2.62;84.80
71082;SHT31;58740;50.672;18.690;2022-12-07T18:39:27;2.60;84.80
71082;SHT31;58740;50.672;18.690;2022-12-07T18:42:00;2.59;84.87
71082;SHT31;58740;50.672;18.690;2022-12-07T18:44:28;2.62;84.86
71082;SHT31;58740;50.672;18.690;2022-12-07T18:46:56;2.61;84.93
71082;SHT31;58740;50.672;18.690;2022-12-07T18:49:24;2.60;84.99
71082;SHT31;58740;50.672;18.690;2022-12-07T18:51:52;2.57;85.00
71082;SHT31;58740;50.672;18.690;2022-12-07T18:54:20;2.55;85.08
71082;SHT31;58740;50.672;18.690;2022-12-07T18:56:48;2.53;85.09
71082;SHT31;58740;50.672;18.690;2022-12-07T18:59:16;2.52;85.13
71082;SHT31;58740;50.672;18.690;2022-12-07T19:02:02;2.52;85.08
71082;SHT31;58740;50.672;18.690;2022-12-07T19:04:30;2.54;85.10
71082;SHT31;58740;50.672;18.690;2022-12-07T19:06:58;2.53;85.08